<<    Januar 2012    >>
Datum    Temp.       Tempmin      Tempmax    Taup.       Taup.min      Taup.max    Feuchte    Feuchtemin    Feuchtemax    Druck    Druckmin    Druckmax    Regen    Wind    Benmax  
  01.01.2012  12,0    10,4    02:23    13,9    23:49  11,4    10,1    02:23    13,2    12:15  95,8    79    23:27    98    00:00  1010,2    1005    23:24    1013    12:09  2,8  2,5  16,6  
  02.01.2012  8,2    3,1    23:45    14,1    00:16  6,6    1,5    23:45    10,5    00:01  90,2    74    16:22    98    02:43  1010,3    1003    01:40    1019    23:59  4,8  2,1  19,4  
  03.01.2012  7,7    2,7    02:49    12,8    18:39  3,5    1,2    07:00    8,7    19:22  75,2    59    21:07    94    03:17  1012,2    1003    17:24    1020    00:24  1,8  5,9  28,4  
  04.01.2012  7,0    5,4    08:53    8,0    00:00  1,4    -0,5    15:32    4,2    23:21  67,8    57    15:15    80    23:21  1013,6    1006    23:59    1019    12:38  0,0  6,2  24,5  
  05.01.2012  7,2    3,0    19:10    9,6    08:31  3,8    -0,1    23:19    7,9    08:58  80,0    56    14:45    98    09:41  996,8    990    08:53    1006    00:00  13,3  10,0  36,4  
  06.01.2012  5,9    4,1    00:15    8,2    14:29  2,4    0,4    00:00    4,0    12:16  78,4    68    14:29    87    06:45  1016,7    1005    00:00    1024    20:23  1,1  7,6  23,8  
  07.01.2012  6,7    4,0    04:20    9,3    12:47  4,0    0,3    00:41    8,2    10:23  83,5    67    15:09    98    08:51  1017,4    1014    09:08    1023    00:00  2,8  6,1  25,9  
  08.01.2012  6,3    4,6    06:33    8,1    13:32  4,6    3,7    06:27    5,9    09:51  89,6    74    14:04    98    07:15  1022,1    1019    00:00    1027    23:59  5,7  5,4  23,8  
  09.01.2012  7,4    5,5    04:07    8,9    20:12  6,8    4,9    04:07    8,5    13:10  96,2    88    20:06    98    05:40  1027,5    1026    07:22    1030    23:07  1,9  3,0  16,6  
  10.01.2012  8,1    5,1    08:14    10,3    14:21  6,0    2,8    17:17    8,6    11:46  87,1    64    14:27    98    00:00  1032,7    1029    00:37    1034    09:37  0,0  1,6  13,0  
  11.01.2012  9,2    8,2    05:47    10,9    12:25  5,5    4,1    08:38    6,6    20:48  77,4    67    13:00    85    01:33  1032,5    1031    05:22    1034    10:22  0,0  2,1  12,6  
  12.01.2012  8,5    5,2    23:59    10,5    12:53  5,1    1,8    23:40    8,1    17:05  79,0    64    12:56    95    17:12  1025,7    1021    16:22    1032    00:00  0,9  5,4  23,8  
  13.01.2012  5,0    4,0    04:20    7,1    13:29  0,7    -2,3    15:07    3,2    08:16  74,2    54    14:38    91    08:16  1028,1    1026    07:36    1030    20:06  0,0  5,9  23,4  
  14.01.2012  4,2    0,0    23:59    6,5    14:02  -0,4    -2,0    23:53    0,9    12:07  72,3    64    14:12    87    23:56  1029,8    1029    01:06    1031    01:52  0,0  2,9  15,1  
  15.01.2012  0,6    -1,8    22:25    4,1    13:15  -1,0    -3,2    20:10    2,9    11:54  89,4    73    14:48    98    09:35  1028,2    1027    01:21    1030    22:05  0,0  0,2  6,8  
  16.01.2012  -1,3    -4,2    06:44    3,3    14:43  -4,4    -7,0    18:13    -0,9    10:55  81,1    51    14:35    97    01:32  1028,8    1027    13:20    1031    23:59  0,0  0,8  9,7  
  17.01.2012  -1,3    -4,8    08:03    4,0    14:36  -4,6    -6,7    07:10    -1,8    12:52  78,9    58    15:11    90    09:12  1030,7    1029    14:20    1033    22:35  0,0  0,2  6,5  
  18.01.2012  1,1    -3,6    04:59    5,3    13:56  -1,7    -5,1    04:34    4,4    23:56  82,4    62    14:35    98    22:16  1028,9    1024    23:50    1032    00:00  3,9  1,5  10,4  
  19.01.2012  7,2    4,7    00:00    11,3    12:26  6,9    4,4    00:00    11,0    12:26  97,8    95    22:27    98    00:00  1017,6    1012    13:20    1024    00:00  13,2  4,2  27,0  
  20.01.2012  4,2    2,0    22:10    6,4    01:53  2,6    0,7    07:40    5,7    01:38  89,7    75    05:52    98    23:59  1015,8    1013    02:50    1019    23:59  6,7  5,5  28,4  
  21.01.2012  6,1    1,4    01:14    9,9    15:27  5,1    1,1    01:14    9,6    15:27  94,1    70    21:42    98    00:00  1010,7    1005    17:19    1019    00:00  8,5  5,1  31,3  
  22.01.2012  6,9    5,2    23:58    9,2    18:33  2,6    1,0    08:34    5,5    15:07  74,0    62    18:33    87    12:20  1010,2    1007    14:05    1014    23:59  0,9  7,6  31,3  
  23.01.2012  5,5    2,5    23:43    7,9    15:04  2,6    1,1    15:44    4,2    11:30  81,5    65    15:18    95    23:59  1015,9    1014    00:00    1018    23:59  0,9  3,9  21,6  
  24.01.2012  3,4    0,3    23:27    5,9    13:57  2,3    -0,3    23:15    4,2    10:56  92,8    83    14:37    98    02:36  1020,9    1017    00:33    1023    22:18  1,2  2,0  14,0  
  25.01.2012  2,4    0,1    00:54    5,0    13:31  0,2    -0,9    21:30    1,6    10:26  86,3    71    13:54    98    00:00  1021,5    1019    15:18    1024    00:48  0,0  3,4  16,2  
  26.01.2012  3,1    1,9    07:34    5,0    14:11  -1,1    -2,9    13:35    1,0    23:57  74,3    57    14:23    88    20:14  1017,9    1016    14:03    1019    00:00  0,0  5,6  22,3  
  27.01.2012  3,3    0,5    22:57    7,7    14:44  1,0    -0,8    14:14    4,2    11:52  85,4    55    14:14    98    08:09  1022,9    1019    00:00    1026    23:59  0,0  1,7  10,4  
  28.01.2012  2,3    0,2    04:46    4,8    13:20  -0,2    -2,7    23:59    2,0    09:37  84,3    68    15:30    98    03:29  1027,8    1025    00:33    1030    19:32  0,0  1,8  11,9  
  29.01.2012  0,4    -0,8    21:32    1,9    00:57  -3,9    -5,4    08:33    -2,6    02:50  72,5    65    07:37    85    22:58  1030,4    1029    00:17    1032    08:03  0,0  3,6  15,5  
  30.01.2012  0,4    -0,7    04:21    1,6    14:52  -3,6    -6,6    22:45    -1,7    10:53  75,6    59    22:32    88    05:05  1026,8    1025    13:32    1030    00:17  0,0  1,3  11,9  
  31.01.2012  -0,4    -3,7    23:44    1,9    14:38  -9,4    -12,8    22:21    -6,3    00:00  51,2    41    12:49    62    00:58  1025,3    1023    14:46    1028    20:31  0,0  2,4  15,1  
 
  Gesamt  4,7  -4,8            14,1            1,8  -12,8            13,2            81,9  41            98            1021,2  990            1034            70,2  3,8  36,4  
 
  Mittelwert  4,7  2,1            7,5            1,8  -0,7            4,6            81,9  66,0            92,9            1021,2  1017,4            1025,0            2,3  3,8  19,1  
  Minimum  -1,3  -4,8            1,6            -9,4  -12,8            -6,3            51,2  41,0            62,0            996,8  990,0            1006,0            0,0  0,2  6,5  
  Maximum  12,0  10,4            14,1            11,4  10,1            13,2            97,8  95,0            98,0            1032,7  1031,0            1034,0            13,3  10,0  36,4  

  Heie Tage    Tmax >=30C     0  
  Sommertage    Tmax >=25C     0  
  Warme Tage    Tmax >=20C     0  
  Kalte Tage    Tmax  <10C     24  
  Frosttage    Tmin  <0C     7  
  Eistage    Tmax  <0C     0  
  Regentage > 0 mm    16  
  Regentage > 2 mm    9  
  Regentage > 10 mm    2  
  Regentage > 20 mm    0